Yarrawonga, Victoria

9:50 PM AEST on May 30, 2015 (GMT +1000)
Mulwala NSW | | Change Station
CLOSE
Current Station
Personal Weather Station
Location: Mulwala, NEW SOUTH WALES
Elevation: 443 ft
Nearby Weather Stations

Elev 443 ft 35.99 °S, 146.00 °E | Updated 35 seconds ago

Overcast
Overcast
53.1 °F
Feels Like 53.1 °F
N
1.8
Wind Variable Wind from WNW
Gusts 2.5 mph

Today
High -- | Low -- °F
--% Chance of Precip.
Yesterday
High -- | Low -- °F
Precip. -- in
7:16 AM 5:10 PM
Waxing Gibbous, 90% visible
Pressure 30.09 in
Visibility 6.2 miles
Clouds Overcast 5900 ft
Dew Point 43 °F
Humidity 68%
Rainfall 0.00 in
Snow Depth Not available.
UV 0.0 out of 12
Pollen Not available.
Air Quality Not available.
Flu Activity Not available.
METAR YMAY 301100Z AUTO 07004KT 9999 // OVC059 10/06 Q1019

More Conditions Fewer Conditions

Pressure 30.09 in
Visibility 6.2 miles
Clouds Overcast 5900 ft
Dew Point 43 °F
Humidity 68%
Rainfall 0.00 in
Snow Depth Not available.
UV 0.0 out of 12
Pollen Not available.
Air Quality Not available.
Flu Activity Not available.
METAR YMAY 301100Z AUTO 07004KT 9999 // OVC059 10/06 Q1019

More Conditions Fewer Conditions

10-Day Weather Forecast

Almanac

Astronomy

May. 30, 2015 Rise Set
Actual Time
Civil Twilight
Nautical Twilight
Astronomical Twilight
Moon
Length of Visible Light
Length of Day
Tomorrow will be .
, % of the Moon is Illuminated

Today's Extremes

Country Highs Country Lows

Community

WunderPhotos

Upload Photos

1,825,484 photos uploaded!

WunderBlogs® & News

Nearby

Air Quality

  Air Quality AQ Index Pollutant
Not available.

Snow Depth

Station Depth Elevation

Earthquake Activity

City Distance Mag. Time & Date
Minimum magnitude displayed is 2.5.

Coastal Water Temperatures

Place Temperature

Stations

Nearby Weather Stations

Station Location Temp. Windchill Dew Point Humidity Wind Precip. Elev Updated Type